createdAt,value
2023-02-27T00:01:45.109Z,62.61
2023-02-27T00:04:11.802Z,62.31
2023-02-27T00:06:38.205Z,62.03
2023-02-27T00:09:04.884Z,62.72
2023-02-27T00:11:31.437Z,63.25
2023-02-27T00:13:59.978Z,62.32
2023-02-27T00:16:26.561Z,62.48
2023-02-27T00:18:53.149Z,62.76
2023-02-27T00:21:20.561Z,62.34
2023-02-27T00:23:47.063Z,62.45
2023-02-27T00:26:13.550Z,63.08
2023-02-27T00:28:40.097Z,63.58
2023-02-27T00:31:06.724Z,63.35
2023-02-27T00:33:33.502Z,63.66
2023-02-27T00:36:01.726Z,64.35
2023-02-27T00:38:28.763Z,64.33
2023-02-27T00:40:55.375Z,64.00
2023-02-27T00:43:21.926Z,64.12
2023-02-27T00:45:53.430Z,63.98
2023-02-27T00:48:22.221Z,63.96
2023-02-27T00:50:50.116Z,64.02
2023-02-27T00:53:16.691Z,63.82
2023-02-27T00:55:45.743Z,63.95
2023-02-27T00:58:12.117Z,64.07
2023-02-27T01:00:38.985Z,64.37
2023-02-27T01:03:05.560Z,64.79
2023-02-27T01:05:34.627Z,64.77
2023-02-27T01:08:03.566Z,64.56
2023-02-27T01:10:32.537Z,64.75
2023-02-27T01:12:59.113Z,64.68
2023-02-27T01:15:25.547Z,64.69
2023-02-27T01:17:52.095Z,64.89
2023-02-27T01:20:18.618Z,64.55
2023-02-27T01:22:47.610Z,64.55
2023-02-27T01:25:16.492Z,64.02
2023-02-27T01:27:43.081Z,63.96
2023-02-27T01:30:11.523Z,64.17
2023-02-27T01:32:38.708Z,64.24
2023-02-27T01:35:05.719Z,63.72
2023-02-27T01:37:32.095Z,63.63
2023-02-27T01:40:01.672Z,62.99
2023-02-27T01:42:28.840Z,62.41
2023-02-27T01:45:06.127Z,63.03
2023-02-27T01:47:32.953Z,63.13
2023-02-27T01:50:01.681Z,62.48
2023-02-27T01:52:30.297Z,62.01
2023-02-27T01:54:57.431Z,62.53
2023-02-27T01:57:23.969Z,63.01
2023-02-27T01:59:50.542Z,62.92
2023-02-27T02:02:23.396Z,62.55
2023-02-27T02:04:50.672Z,61.65
2023-02-27T02:07:19.750Z,61.63
2023-02-27T02:09:50.729Z,61.76
2023-02-27T02:12:20.001Z,61.73
2023-02-27T02:14:46.551Z,61.11
2023-02-27T02:17:28.956Z,61.15
2023-02-27T02:20:17.896Z,60.84
2023-02-27T02:22:56.536Z,60.76
2023-02-27T02:25:41.666Z,60.52
2023-02-27T02:28:23.142Z,60.64
2023-02-27T02:31:06.520Z,61.19
2023-02-27T02:34:13.412Z,61.97
2023-02-27T02:37:10.677Z,60.92
2023-02-27T02:40:14.623Z,61.27
2023-02-27T02:42:53.370Z,61.85
2023-02-27T02:45:29.485Z,61.39
2023-02-27T02:48:17.551Z,61.67
2023-02-27T02:50:50.281Z,62.59
2023-02-27T02:53:55.028Z,61.80
2023-02-27T02:56:43.991Z,62.13
2023-02-27T02:59:23.062Z,62.23
2023-02-27T03:01:56.431Z,62.11
2023-02-27T03:04:34.090Z,61.76
2023-02-27T03:07:08.235Z,62.43
2023-02-27T03:09:39.950Z,62.16
2023-02-27T03:12:10.650Z,62.47
2023-02-27T03:14:45.769Z,62.65
2023-02-27T03:17:20.951Z,62.49
2023-02-27T03:20:01.874Z,62.56
2023-02-27T03:22:36.232Z,62.61
2023-02-27T03:25:07.027Z,62.25
2023-02-27T03:27:38.552Z,63.33
2023-02-27T03:30:16.037Z,63.37
2023-02-27T03:33:03.967Z,62.50
2023-02-27T03:35:54.736Z,62.88
2023-02-27T03:38:27.993Z,63.35
2023-02-27T03:41:19.443Z,63.58
2023-02-27T03:44:05.444Z,64.02
2023-02-27T03:46:32.136Z,63.67
2023-02-27T03:48:58.518Z,63.92
2023-02-27T03:51:28.813Z,63.77
2023-02-27T03:54:04.031Z,63.85
2023-02-27T03:56:50.259Z,64.02
2023-02-27T03:59:19.515Z,62.72
2023-02-27T04:01:46.322Z,62.92
2023-02-27T04:04:18.470Z,63.39
2023-02-27T04:07:13.397Z,62.89
2023-02-27T04:09:50.463Z,62.99
2023-02-27T04:12:32.249Z,62.73
2023-02-27T04:15:04.668Z,62.59
2023-02-27T04:17:38.731Z,63.02
2023-02-27T04:20:36.129Z,63.19
2023-02-27T04:23:19.006Z,63.22
2023-02-27T04:26:00.922Z,62.38
2023-02-27T04:28:46.219Z,63.31
2023-02-27T04:31:20.038Z,62.78
2023-02-27T04:33:57.201Z,62.54
2023-02-27T04:36:33.212Z,62.06
2023-02-27T04:39:04.616Z,63.12
2023-02-27T04:41:50.744Z,62.99
2023-02-27T04:44:20.169Z,62.33
2023-02-27T04:46:49.796Z,62.84
2023-02-27T04:49:28.736Z,62.13
2023-02-27T04:52:46.870Z,62.12
2023-02-27T04:55:40.808Z,61.08
2023-02-27T04:58:25.421Z,61.58
2023-02-27T05:01:00.393Z,61.11
2023-02-27T05:03:50.037Z,61.79
2023-02-27T05:06:20.285Z,61.65
2023-02-27T05:08:56.119Z,60.79
2023-02-27T05:11:32.738Z,60.79
2023-02-27T05:14:09.094Z,60.67
2023-02-27T05:16:45.686Z,60.83
2023-02-27T05:19:12.714Z,59.96
2023-02-27T05:21:53.829Z,59.94
2023-02-27T05:24:58.166Z,60.21
2023-02-27T05:27:36.506Z,60.11
2023-02-27T05:30:31.913Z,59.76
2023-02-27T05:33:15.741Z,58.71
2023-02-27T05:35:59.173Z,59.75
2023-02-27T05:38:27.708Z,59.23
2023-02-27T05:41:00.075Z,59.43
2023-02-27T05:43:36.122Z,59.35
2023-02-27T05:46:11.506Z,59.63
2023-02-27T05:48:55.168Z,58.61
2023-02-27T05:51:26.736Z,59.18
2023-02-27T05:54:01.499Z,59.15
2023-02-27T05:56:30.813Z,59.24
2023-02-27T05:59:02.887Z,59.36
2023-02-27T06:01:33.025Z,59.60
2023-02-27T06:03:59.597Z,59.15
2023-02-27T06:06:26.659Z,59.47
2023-02-27T06:08:55.684Z,59.01
2023-02-27T06:11:22.159Z,59.63
2023-02-27T06:13:49.123Z,59.32
2023-02-27T06:16:18.469Z,59.71
2023-02-27T06:18:45.052Z,59.56
2023-02-27T06:21:13.750Z,59.54
2023-02-27T06:23:40.190Z,59.40
2023-02-27T06:26:06.685Z,60.11
2023-02-27T06:28:37.856Z,59.91
2023-02-27T06:31:04.387Z,60.12
2023-02-27T06:33:30.795Z,60.12
2023-02-27T06:35:57.340Z,60.64
2023-02-27T06:38:23.722Z,59.74
2023-02-27T06:40:52.521Z,60.40
2023-02-27T06:43:26.036Z,60.00
2023-02-27T06:45:55.514Z,59.95
2023-02-27T06:48:24.602Z,59.82
2023-02-27T06:50:57.967Z,60.13
2023-02-27T06:53:24.943Z,59.74
2023-02-27T06:55:51.735Z,59.58
2023-02-27T06:58:18.750Z,59.20
2023-02-27T07:00:45.367Z,58.94
2023-02-27T07:03:12.985Z,58.38
2023-02-27T07:05:43.495Z,58.13
2023-02-27T07:08:10.849Z,58.05
2023-02-27T07:10:37.540Z,58.54
2023-02-27T07:13:06.028Z,58.52
2023-02-27T07:15:32.448Z,58.44
2023-02-27T07:17:58.814Z,58.36
2023-02-27T07:20:25.336Z,58.23
2023-02-27T07:22:51.846Z,58.00
2023-02-27T07:25:20.629Z,57.15
2023-02-27T07:27:49.671Z,57.11
2023-02-27T07:30:17.287Z,57.53
2023-02-27T07:32:43.824Z,57.19
2023-02-27T07:35:11.075Z,57.71
2023-02-27T07:37:38.436Z,56.92
2023-02-27T07:40:07.502Z,57.68
2023-02-27T07:42:34.303Z,57.10
2023-02-27T07:45:00.775Z,57.33
2023-02-27T07:47:27.244Z,57.47
2023-02-27T07:49:53.814Z,57.58
2023-02-27T07:52:20.356Z,57.29
2023-02-27T07:54:46.985Z,57.02
2023-02-27T07:57:13.787Z,56.78
2023-02-27T07:59:40.580Z,56.61
2023-02-27T08:02:12.665Z,56.42
2023-02-27T08:04:41.297Z,56.26
2023-02-27T08:07:08.144Z,56.08
2023-02-27T08:09:34.634Z,56.24
2023-02-27T08:12:03.010Z,55.97
2023-02-27T08:14:29.604Z,56.82
2023-02-27T08:16:56.040Z,55.94
2023-02-27T08:19:24.832Z,55.50
2023-02-27T08:21:51.235Z,55.15
2023-02-27T08:24:17.758Z,54.31
2023-02-27T08:26:44.294Z,54.00
2023-02-27T08:29:10.698Z,54.96
2023-02-27T08:31:37.259Z,54.69
2023-02-27T08:34:10.326Z,53.18
2023-02-27T08:36:40.371Z,53.32
2023-02-27T08:39:08.608Z,53.90
2023-02-27T08:41:35.530Z,53.24
2023-02-27T08:44:02.787Z,53.45
2023-02-27T08:46:31.781Z,54.06
2023-02-27T08:48:58.198Z,52.32
2023-02-27T08:51:27.494Z,52.39
2023-02-27T08:53:58.788Z,51.64
2023-02-27T08:56:26.930Z,52.19
2023-02-27T08:58:54.015Z,52.06
2023-02-27T09:01:20.711Z,52.29
2023-02-27T09:03:49.911Z,51.77
2023-02-27T09:06:16.285Z,51.38
2023-02-27T09:08:43.186Z,51.23
2023-02-27T09:11:09.590Z,52.07
2023-02-27T09:13:36.039Z,51.30
2023-02-27T09:16:02.550Z,50.60
2023-02-27T09:18:29.160Z,50.40
2023-02-27T09:20:56.436Z,50.04
2023-02-27T09:23:22.965Z,49.45
2023-02-27T09:25:49.372Z,49.98
2023-02-27T09:28:16.094Z,50.14
2023-02-27T09:30:42.915Z,49.48
2023-02-27T09:33:09.435Z,49.31
2023-02-27T09:35:35.839Z,49.53
2023-02-27T09:38:02.408Z,49.56
2023-02-27T09:40:32.024Z,50.09
2023-02-27T09:43:09.564Z,49.44
2023-02-27T09:45:39.261Z,49.04
2023-02-27T09:48:15.791Z,49.16
2023-02-27T09:50:48.673Z,49.07
2023-02-27T09:53:31.236Z,49.03
2023-02-27T09:56:04.670Z,49.82
2023-02-27T09:58:51.643Z,49.40
2023-02-27T10:01:20.773Z,49.72
2023-02-27T10:04:16.320Z,49.26
2023-02-27T10:06:50.479Z,48.91
2023-02-27T10:09:44.802Z,48.75
2023-02-27T10:12:39.289Z,48.53
2023-02-27T10:15:26.276Z,48.69
2023-02-27T10:18:25.558Z,48.11
2023-02-27T10:21:00.409Z,47.78
2023-02-27T10:23:46.991Z,47.76
2023-02-27T10:26:22.253Z,47.79
2023-02-27T10:28:51.301Z,48.47
2023-02-27T10:31:22.526Z,46.66
2023-02-27T10:33:49.807Z,46.80
2023-02-27T10:36:32.520Z,46.21
2023-02-27T10:39:08.808Z,47.23
2023-02-27T10:41:36.320Z,47.24
2023-02-27T10:44:02.838Z,47.45
2023-02-27T10:46:32.504Z,47.31
2023-02-27T10:49:00.681Z,46.73
2023-02-27T10:51:35.788Z,47.86
2023-02-27T10:54:15.898Z,45.52
2023-02-27T10:56:45.749Z,46.01
2023-02-27T10:59:22.713Z,46.70
2023-02-27T11:01:55.920Z,46.61
2023-02-27T11:04:29.408Z,45.64
2023-02-27T11:06:56.630Z,45.41
2023-02-27T11:09:30.289Z,46.39
2023-02-27T11:12:11.217Z,45.64
2023-02-27T11:14:49.669Z,45.42
2023-02-27T11:17:29.188Z,45.49
2023-02-27T11:19:57.909Z,45.29
2023-02-27T11:22:27.649Z,46.19
2023-02-27T11:25:17.711Z,46.56
2023-02-27T11:27:46.246Z,45.05
2023-02-27T11:30:32.378Z,44.78
2023-02-27T11:33:01.687Z,44.65
2023-02-27T11:35:34.006Z,44.93
2023-02-27T11:38:03.124Z,43.66
2023-02-27T11:40:50.292Z,45.39
2023-02-27T11:43:21.580Z,44.05
2023-02-27T11:46:04.586Z,44.74
2023-02-27T11:48:52.114Z,44.84
2023-02-27T11:51:38.976Z,45.18
2023-02-27T11:54:13.007Z,45.49
2023-02-27T11:56:54.353Z,44.67
2023-02-27T11:59:32.246Z,44.13
2023-02-27T12:02:32.565Z,45.11
2023-02-27T12:05:08.902Z,45.63
2023-02-27T12:07:54.252Z,45.37
2023-02-27T12:10:21.013Z,45.90
2023-02-27T12:12:55.697Z,46.03
2023-02-27T12:15:29.523Z,45.92
2023-02-27T12:18:10.926Z,45.25
2023-02-27T12:20:55.983Z,45.46
2023-02-27T12:23:38.559Z,44.86
2023-02-27T12:26:30.991Z,45.46
2023-02-27T12:29:15.308Z,45.41
2023-02-27T12:32:02.310Z,45.28
2023-02-27T12:34:39.850Z,44.60
2023-02-27T12:37:15.312Z,45.18
2023-02-27T12:39:44.098Z,45.14
2023-02-27T12:42:38.043Z,45.08
2023-02-27T12:45:31.527Z,45.52
2023-02-27T12:48:27.228Z,46.08
2023-02-27T12:51:12.051Z,45.43
2023-02-27T12:53:44.423Z,45.82
2023-02-27T12:56:17.822Z,44.60
2023-02-27T12:59:22.757Z,45.54
2023-02-27T13:02:18.980Z,45.64
2023-02-27T13:05:00.767Z,45.26
2023-02-27T13:07:38.097Z,44.66
2023-02-27T13:10:24.125Z,46.14
2023-02-27T13:12:57.207Z,45.19
2023-02-27T13:15:51.478Z,45.70
2023-02-27T13:18:57.204Z,44.72
2023-02-27T13:22:02.913Z,45.26
2023-02-27T13:24:32.037Z,45.16
2023-02-27T13:27:03.396Z,45.90
2023-02-27T13:29:57.316Z,46.18
2023-02-27T13:32:44.737Z,46.24
2023-02-27T13:35:22.361Z,46.72
2023-02-27T13:38:05.230Z,45.84
2023-02-27T13:40:34.734Z,45.98
2023-02-27T13:43:26.920Z,46.47
2023-02-27T13:45:59.134Z,46.38
2023-02-27T13:48:41.788Z,45.81
2023-02-27T13:51:31.766Z,46.30
2023-02-27T13:54:13.751Z,46.22
2023-02-27T13:56:45.999Z,46.07
2023-02-27T13:59:19.980Z,45.45
2023-02-27T14:01:58.990Z,45.30
2023-02-27T14:04:29.559Z,45.06
2023-02-27T14:07:02.328Z,45.40
2023-02-27T14:09:37.040Z,45.61
2023-02-27T14:12:06.677Z,44.97
2023-02-27T14:14:41.327Z,45.41
2023-02-27T14:17:33.602Z,45.17
2023-02-27T14:20:00.186Z,44.28
2023-02-27T14:22:33.626Z,44.51
2023-02-27T14:25:08.842Z,45.05
2023-02-27T14:27:38.266Z,45.47
2023-02-27T14:30:10.502Z,46.11
2023-02-27T14:32:37.759Z,45.92
2023-02-27T14:35:06.133Z,45.38
2023-02-27T14:37:33.540Z,45.10
2023-02-27T14:40:03.307Z,45.07
2023-02-27T14:43:00.353Z,44.41
2023-02-27T14:45:30.903Z,45.60
2023-02-27T14:47:58.428Z,44.70
2023-02-27T14:50:34.120Z,45.99
2023-02-27T14:53:01.640Z,45.38
2023-02-27T14:55:38.659Z,45.43
2023-02-27T14:58:14.178Z,46.38
2023-02-27T15:00:50.733Z,46.47
2023-02-27T15:03:19.014Z,46.04
2023-02-27T15:05:46.898Z,46.14
2023-02-27T15:08:29.189Z,46.85
2023-02-27T15:10:58.662Z,45.47
2023-02-27T15:13:28.709Z,45.98
2023-02-27T15:16:26.685Z,45.30
2023-02-27T15:18:59.948Z,45.17
2023-02-27T15:21:34.034Z,45.67
2023-02-27T15:24:04.598Z,46.21
2023-02-27T15:26:38.885Z,46.78
2023-02-27T15:29:07.716Z,46.63
2023-02-27T15:31:35.197Z,46.32
2023-02-27T15:34:03.831Z,46.21
2023-02-27T15:36:35.464Z,46.15
2023-02-27T15:39:18.987Z,46.72
2023-02-27T15:41:48.700Z,46.68
2023-02-27T15:44:18.483Z,46.13
2023-02-27T15:46:46.450Z,46.11
2023-02-27T15:49:21.634Z,45.54
2023-02-27T15:51:55.206Z,45.86
2023-02-27T15:54:22.917Z,46.46
2023-02-27T15:56:49.520Z,45.96
2023-02-27T15:59:19.714Z,46.57
2023-02-27T16:01:48.112Z,46.76
2023-02-27T16:04:24.396Z,46.68
2023-02-27T16:06:59.908Z,45.91
2023-02-27T16:09:33.025Z,45.89
2023-02-27T16:12:22.974Z,45.70
2023-02-27T16:14:55.804Z,46.01
2023-02-27T16:17:27.545Z,45.22
2023-02-27T16:19:56.295Z,45.68
2023-02-27T16:22:23.447Z,45.36
2023-02-27T16:24:52.685Z,45.80
2023-02-27T16:27:29.259Z,45.15
2023-02-27T16:30:04.974Z,45.93
2023-02-27T16:32:38.979Z,46.65
2023-02-27T16:35:08.683Z,46.82
2023-02-27T16:37:40.752Z,46.63
2023-02-27T16:40:18.257Z,47.35
2023-02-27T16:42:45.842Z,47.44
2023-02-27T16:45:23.730Z,48.07
2023-02-27T16:47:52.765Z,48.14
2023-02-27T16:50:35.431Z,48.50
2023-02-27T16:53:01.770Z,48.58
2023-02-27T16:55:28.374Z,48.05
2023-02-27T16:57:54.876Z,47.97
2023-02-27T17:00:22.723Z,47.72
2023-02-27T17:02:49.469Z,47.81
2023-02-27T17:05:16.201Z,46.07
2023-02-27T17:07:45.735Z,45.00
2023-02-27T17:10:18.679Z,44.31
2023-02-27T17:12:49.972Z,45.22
2023-02-27T17:15:17.069Z,44.62
2023-02-27T17:17:44.416Z,45.43
2023-02-27T17:20:12.802Z,46.07
2023-02-27T17:22:41.491Z,45.74
2023-02-27T17:25:09.336Z,46.30
2023-02-27T17:27:36.323Z,47.57
2023-02-27T17:30:03.733Z,46.63
2023-02-27T17:32:30.228Z,47.54
2023-02-27T17:34:59.628Z,46.42
2023-02-27T17:37:26.199Z,46.12
2023-02-27T17:39:52.713Z,46.98
2023-02-27T17:42:22.839Z,46.86
2023-02-27T17:44:49.253Z,47.19
2023-02-27T17:47:18.023Z,46.73
2023-02-27T17:49:44.494Z,47.16
2023-02-27T17:52:13.579Z,46.91
2023-02-27T17:54:40.069Z,47.33
2023-02-27T17:57:07.033Z,47.54
2023-02-27T17:59:33.642Z,47.74
2023-02-27T18:02:00.077Z,47.60
2023-02-27T18:04:26.533Z,47.25
2023-02-27T18:06:53.344Z,47.73
2023-02-27T18:09:20.132Z,47.92
2023-02-27T18:11:49.627Z,48.68
2023-02-27T18:14:18.775Z,48.49
2023-02-27T18:16:45.291Z,48.86
2023-02-27T18:19:14.326Z,49.26
2023-02-27T18:21:44.421Z,49.36
2023-02-27T18:24:11.028Z,49.64
2023-02-27T18:26:38.117Z,50.01
2023-02-27T18:29:14.054Z,50.20
2023-02-27T18:31:48.363Z,50.66
2023-02-27T18:34:14.738Z,50.69
2023-02-27T18:36:41.803Z,50.47
2023-02-27T18:39:08.693Z,50.64
2023-02-27T18:41:35.544Z,50.96
2023-02-27T18:44:05.148Z,50.81
2023-02-27T18:46:32.766Z,51.39
2023-02-27T18:48:59.537Z,51.64
2023-02-27T18:51:27.891Z,50.82
2023-02-27T18:53:54.439Z,51.45
2023-02-27T18:56:23.669Z,52.22
2023-02-27T18:58:51.602Z,52.83
2023-02-27T19:01:27.374Z,53.14
2023-02-27T19:04:00.133Z,53.01
2023-02-27T19:06:27.517Z,54.05
2023-02-27T19:08:54.212Z,54.01
2023-02-27T19:11:33.809Z,54.19
2023-02-27T19:14:01.905Z,53.84
2023-02-27T19:16:28.813Z,53.47
2023-02-27T19:18:57.179Z,54.23
2023-02-27T19:21:27.184Z,53.43
2023-02-27T19:23:54.071Z,53.90
2023-02-27T19:26:21.285Z,53.61
2023-02-27T19:28:51.262Z,54.60
2023-02-27T19:31:18.386Z,54.84
2023-02-27T19:33:45.217Z,54.45
2023-02-27T19:36:14.345Z,54.20
2023-02-27T19:38:40.913Z,53.69
2023-02-27T19:41:10.889Z,53.78
2023-02-27T19:43:39.328Z,53.15
2023-02-27T19:46:11.468Z,53.15
2023-02-27T19:48:38.479Z,53.15
2023-02-27T19:51:08.508Z,53.68
2023-02-27T19:53:36.396Z,52.99
2023-02-27T19:56:13.531Z,53.39
2023-02-27T19:58:40.523Z,53.15
2023-02-27T20:01:09.923Z,53.01
2023-02-27T20:03:37.162Z,52.50
2023-02-27T20:06:09.105Z,53.20
2023-02-27T20:08:35.460Z,52.42
2023-02-27T20:11:04.551Z,53.00
2023-02-27T20:13:31.170Z,53.34
2023-02-27T20:16:03.490Z,53.43
2023-02-27T20:18:33.632Z,54.03
2023-02-27T20:21:03.096Z,54.30
2023-02-27T20:23:31.372Z,54.19
2023-02-27T20:25:57.944Z,54.17
2023-02-27T20:28:29.946Z,54.95
2023-02-27T20:30:56.424Z,54.50
2023-02-27T20:33:23.011Z,54.18
2023-02-27T20:35:49.439Z,54.76
2023-02-27T20:38:19.821Z,54.46
2023-02-27T20:40:46.496Z,54.88
2023-02-27T20:43:12.877Z,55.07
2023-02-27T20:45:39.722Z,54.60
2023-02-27T20:48:07.282Z,55.29
2023-02-27T20:50:34.252Z,55.72
2023-02-27T20:53:00.646Z,55.46
2023-02-27T20:55:27.072Z,56.53
2023-02-27T20:57:53.442Z,55.83
2023-02-27T21:00:20.540Z,55.84
2023-02-27T21:02:46.961Z,55.35
2023-02-27T21:05:13.410Z,55.24
2023-02-27T21:07:39.988Z,56.11
2023-02-27T21:10:06.871Z,56.26
2023-02-27T21:12:34.002Z,57.11
2023-02-27T21:15:00.395Z,57.37
2023-02-27T21:17:31.698Z,58.19
2023-02-27T21:20:06.547Z,57.73
2023-02-27T21:22:33.310Z,57.75
2023-02-27T21:24:59.870Z,57.62
2023-02-27T21:27:26.400Z,58.33
2023-02-27T21:29:53.014Z,57.98
2023-02-27T21:32:19.623Z,57.99
2023-02-27T21:34:48.463Z,57.98
2023-02-27T21:37:14.977Z,58.32
2023-02-27T21:39:41.519Z,58.05
2023-02-27T21:42:08.017Z,58.30
2023-02-27T21:44:34.570Z,58.42
2023-02-27T21:47:09.754Z,58.62
2023-02-27T21:49:39.378Z,58.82
2023-02-27T21:52:06.400Z,59.21
2023-02-27T21:54:32.818Z,60.39
2023-02-27T21:57:01.869Z,59.00
2023-02-27T21:59:28.896Z,59.89
2023-02-27T22:01:56.256Z,59.79
2023-02-27T22:04:26.123Z,60.08
2023-02-27T22:06:52.978Z,60.04
2023-02-27T22:09:19.812Z,60.57
2023-02-27T22:11:47.323Z,60.65
2023-02-27T22:14:14.093Z,60.72
2023-02-27T22:16:41.030Z,60.58
2023-02-27T22:19:09.757Z,60.21
2023-02-27T22:21:36.887Z,60.16
2023-02-27T22:24:03.612Z,61.05
2023-02-27T22:26:34.031Z,60.94
2023-02-27T22:29:01.223Z,61.33
2023-02-27T22:31:31.051Z,61.42
2023-02-27T22:34:04.031Z,61.79
2023-02-27T22:36:32.053Z,61.07
2023-02-27T22:39:02.271Z,61.38
2023-02-27T22:41:31.710Z,61.45
2023-02-27T22:43:59.898Z,61.63
2023-02-27T22:46:30.465Z,62.35
2023-02-27T22:48:59.217Z,61.61
2023-02-27T22:51:28.484Z,61.61
2023-02-27T22:53:57.154Z,62.28
2023-02-27T22:56:24.055Z,62.77
2023-02-27T22:58:51.027Z,63.36
2023-02-27T23:01:21.979Z,63.52
2023-02-27T23:03:51.096Z,63.72
2023-02-27T23:06:20.565Z,63.34
2023-02-27T23:08:47.882Z,64.60
2023-02-27T23:11:18.367Z,63.39
2023-02-27T23:13:44.789Z,63.61
2023-02-27T23:16:12.359Z,63.18
2023-02-27T23:18:46.054Z,63.20
2023-02-27T23:21:13.776Z,62.70
2023-02-27T23:23:40.407Z,62.16
2023-02-27T23:26:07.326Z,63.07
2023-02-27T23:28:37.813Z,63.64
2023-02-27T23:31:05.881Z,62.62
2023-02-27T23:33:33.005Z,63.19
2023-02-27T23:36:00.897Z,63.58
2023-02-27T23:38:28.318Z,63.03
2023-02-27T23:40:55.096Z,62.51
2023-02-27T23:43:22.140Z,62.34
2023-02-27T23:45:51.683Z,61.97
2023-02-27T23:48:18.135Z,62.18
2023-02-27T23:50:44.807Z,60.93
2023-02-27T23:53:13.261Z,61.35
2023-02-27T23:55:43.775Z,61.59
2023-02-27T23:58:11.230Z,61.61
